sensor_id;sensor_type;location;lat;lon;timestamp;temperature;humidity
563;DHT22;266;49.514;8.294;2023-03-31T00:00:35;12.80;99.90
563;DHT22;266;49.514;8.294;2023-03-31T00:03:03;12.80;99.90
563;DHT22;266;49.514;8.294;2023-03-31T00:05:36;12.80;99.90
563;DHT22;266;49.514;8.294;2023-03-31T00:08:05;12.80;99.90
563;DHT22;266;49.514;8.294;2023-03-31T00:10:35;12.80;99.90
563;DHT22;266;49.514;8.294;2023-03-31T00:13:02;12.90;99.90
563;DHT22;266;49.514;8.294;2023-03-31T00:15:30;12.90;99.90
563;DHT22;266;49.514;8.294;2023-03-31T00:17:58;12.90;99.90
563;DHT22;266;49.514;8.294;2023-03-31T00:20:28;13.00;99.90
563;DHT22;266;49.514;8.294;2023-03-31T00:22:59;13.00;99.90
563;DHT22;266;49.514;8.294;2023-03-31T00:25:28;13.00;99.90
563;DHT22;266;49.514;8.294;2023-03-31T00:27:56;13.00;99.90
563;DHT22;266;49.514;8.294;2023-03-31T00:30:24;13.00;99.90
563;DHT22;266;49.514;8.294;2023-03-31T00:32:54;13.10;99.90
563;DHT22;266;49.514;8.294;2023-03-31T00:35:22;13.00;99.90
563;DHT22;266;49.514;8.294;2023-03-31T00:37:50;12.90;99.90
563;DHT22;266;49.514;8.294;2023-03-31T00:40:19;12.90;99.90
563;DHT22;266;49.514;8.294;2023-03-31T00:42:48;12.80;99.90
563;DHT22;266;49.514;8.294;2023-03-31T00:45:27;12.90;99.90
563;DHT22;266;49.514;8.294;2023-03-31T00:48:01;12.80;99.90
563;DHT22;266;49.514;8.294;2023-03-31T00:50:32;12.80;99.90
563;DHT22;266;49.514;8.294;2023-03-31T00:53:05;12.90;99.90
563;DHT22;266;49.514;8.294;2023-03-31T00:55:38;12.80;99.90
563;DHT22;266;49.514;8.294;2023-03-31T00:58:10;12.90;99.90
563;DHT22;266;49.514;8.294;2023-03-31T01:00:40;13.00;99.90
563;DHT22;266;49.514;8.294;2023-03-31T01:03:09;13.00;99.90
563;DHT22;266;49.514;8.294;2023-03-31T01:05:43;13.00;99.90
563;DHT22;266;49.514;8.294;2023-03-31T01:08:13;13.10;99.90
563;DHT22;266;49.514;8.294;2023-03-31T01:10:47;13.20;99.90
563;DHT22;266;49.514;8.294;2023-03-31T01:13:18;13.20;99.90
563;DHT22;266;49.514;8.294;2023-03-31T01:15:46;13.30;99.90
563;DHT22;266;49.514;8.294;2023-03-31T01:18:15;13.30;99.90
563;DHT22;266;49.514;8.294;2023-03-31T01:21:23;13.20;99.90
563;DHT22;266;49.514;8.294;2023-03-31T01:24:25;13.20;99.90
563;DHT22;266;49.514;8.294;2023-03-31T01:27:15;13.20;99.90
563;DHT22;266;49.514;8.294;2023-03-31T01:30:20;13.20;99.90
563;DHT22;266;49.514;8.294;2023-03-31T01:33:19;13.30;99.90
563;DHT22;266;49.514;8.294;2023-03-31T01:36:03;13.20;99.90
563;DHT22;266;49.514;8.294;2023-03-31T01:39:02;13.10;99.90
563;DHT22;266;49.514;8.294;2023-03-31T01:41:45;13.10;99.90
563;DHT22;266;49.514;8.294;2023-03-31T01:44:19;13.20;99.90
563;DHT22;266;49.514;8.294;2023-03-31T01:46:52;13.30;99.90
563;DHT22;266;49.514;8.294;2023-03-31T01:49:25;13.30;99.90
563;DHT22;266;49.514;8.294;2023-03-31T01:52:00;13.30;99.90
563;DHT22;266;49.514;8.294;2023-03-31T01:54:35;13.40;99.90
563;DHT22;266;49.514;8.294;2023-03-31T01:57:11;13.50;99.90
563;DHT22;266;49.514;8.294;2023-03-31T01:59:45;13.50;99.90
563;DHT22;266;49.514;8.294;2023-03-31T02:02:19;13.40;99.90
563;DHT22;266;49.514;8.294;2023-03-31T02:04:52;13.50;99.90
563;DHT22;266;49.514;8.294;2023-03-31T02:07:27;13.40;99.90
563;DHT22;266;49.514;8.294;2023-03-31T02:10:00;13.40;99.90
563;DHT22;266;49.514;8.294;2023-03-31T02:12:31;13.30;99.90
563;DHT22;266;49.514;8.294;2023-03-31T02:15:01;13.30;99.90
563;DHT22;266;49.514;8.294;2023-03-31T02:17:30;13.30;99.90
563;DHT22;266;49.514;8.294;2023-03-31T02:20:02;13.30;99.90
563;DHT22;266;49.514;8.294;2023-03-31T02:22:35;13.30;99.90
563;DHT22;266;49.514;8.294;2023-03-31T02:25:05;13.20;99.90
563;DHT22;266;49.514;8.294;2023-03-31T02:27:38;13.10;99.90
563;DHT22;266;49.514;8.294;2023-03-31T02:30:08;13.00;99.90
563;DHT22;266;49.514;8.294;2023-03-31T02:32:39;12.90;99.90
563;DHT22;266;49.514;8.294;2023-03-31T02:35:10;12.80;99.90
563;DHT22;266;49.514;8.294;2023-03-31T02:37:40;12.80;99.90
563;DHT22;266;49.514;8.294;2023-03-31T02:40:11;12.70;99.90
563;DHT22;266;49.514;8.294;2023-03-31T02:42:43;12.60;99.90
563;DHT22;266;49.514;8.294;2023-03-31T02:45:38;12.60;99.90
563;DHT22;266;49.514;8.294;2023-03-31T02:48:09;12.60;99.90
563;DHT22;266;49.514;8.294;2023-03-31T02:50:49;12.60;99.90
563;DHT22;266;49.514;8.294;2023-03-31T02:53:26;12.60;99.90
563;DHT22;266;49.514;8.294;2023-03-31T02:56:06;12.40;99.90
563;DHT22;266;49.514;8.294;2023-03-31T02:59:01;12.40;99.90
563;DHT22;266;49.514;8.294;2023-03-31T03:01:42;12.40;99.90
563;DHT22;266;49.514;8.294;2023-03-31T03:04:25;12.50;99.90
563;DHT22;266;49.514;8.294;2023-03-31T03:07:02;12.50;99.90
563;DHT22;266;49.514;8.294;2023-03-31T03:09:38;12.50;99.90
563;DHT22;266;49.514;8.294;2023-03-31T03:12:15;12.60;99.90
563;DHT22;266;49.514;8.294;2023-03-31T03:14:49;12.60;99.90
563;DHT22;266;49.514;8.294;2023-03-31T03:17:23;12.60;99.90
563;DHT22;266;49.514;8.294;2023-03-31T03:19:53;12.60;99.90
563;DHT22;266;49.514;8.294;2023-03-31T03:22:22;12.50;99.90
563;DHT22;266;49.514;8.294;2023-03-31T03:24:51;12.50;99.90
563;DHT22;266;49.514;8.294;2023-03-31T03:27:19;12.40;99.90
563;DHT22;266;49.514;8.294;2023-03-31T03:29:49;12.40;99.90
563;DHT22;266;49.514;8.294;2023-03-31T03:32:17;12.30;99.90
563;DHT22;266;49.514;8.294;2023-03-31T03:34:45;12.20;99.90
563;DHT22;266;49.514;8.294;2023-03-31T03:37:13;12.20;99.90
563;DHT22;266;49.514;8.294;2023-03-31T03:39:41;12.20;99.90
563;DHT22;266;49.514;8.294;2023-03-31T03:42:09;12.10;99.90
563;DHT22;266;49.514;8.294;2023-03-31T03:44:37;12.10;99.90
563;DHT22;266;49.514;8.294;2023-03-31T03:47:06;12.00;99.90
563;DHT22;266;49.514;8.294;2023-03-31T03:49:34;12.00;99.90
563;DHT22;266;49.514;8.294;2023-03-31T03:52:02;11.80;99.90
563;DHT22;266;49.514;8.294;2023-03-31T03:54:30;11.70;99.90
563;DHT22;266;49.514;8.294;2023-03-31T03:56:58;11.60;99.90
563;DHT22;266;49.514;8.294;2023-03-31T03:59:26;11.50;99.90
563;DHT22;266;49.514;8.294;2023-03-31T04:01:54;11.50;99.90
563;DHT22;266;49.514;8.294;2023-03-31T04:04:24;11.60;99.90
563;DHT22;266;49.514;8.294;2023-03-31T04:06:51;11.60;99.90
563;DHT22;266;49.514;8.294;2023-03-31T04:09:19;11.60;99.90
563;DHT22;266;49.514;8.294;2023-03-31T04:11:47;11.60;99.90
563;DHT22;266;49.514;8.294;2023-03-31T04:14:15;11.60;99.90
563;DHT22;266;49.514;8.294;2023-03-31T04:16:43;11.60;99.90
563;DHT22;266;49.514;8.294;2023-03-31T04:19:12;11.60;99.90
563;DHT22;266;49.514;8.294;2023-03-31T04:21:44;11.50;99.90
563;DHT22;266;49.514;8.294;2023-03-31T04:24:16;11.50;99.90
563;DHT22;266;49.514;8.294;2023-03-31T04:26:47;11.60;99.90
563;DHT22;266;49.514;8.294;2023-03-31T04:29:16;11.60;99.90
563;DHT22;266;49.514;8.294;2023-03-31T04:31:46;11.60;99.90
563;DHT22;266;49.514;8.294;2023-03-31T04:34:16;11.60;99.90
563;DHT22;266;49.514;8.294;2023-03-31T04:36:46;11.60;99.90
563;DHT22;266;49.514;8.294;2023-03-31T04:39:14;11.60;99.90
563;DHT22;266;49.514;8.294;2023-03-31T04:41:42;11.50;99.90
563;DHT22;266;49.514;8.294;2023-03-31T04:44:10;11.50;99.90
563;DHT22;266;49.514;8.294;2023-03-31T04:46:38;11.40;99.90
563;DHT22;266;49.514;8.294;2023-03-31T04:49:06;11.40;99.90
563;DHT22;266;49.514;8.294;2023-03-31T04:51:34;11.40;99.90
563;DHT22;266;49.514;8.294;2023-03-31T04:54:03;11.40;99.90
563;DHT22;266;49.514;8.294;2023-03-31T04:56:31;11.30;99.90
563;DHT22;266;49.514;8.294;2023-03-31T04:58:59;11.30;99.90
563;DHT22;266;49.514;8.294;2023-03-31T05:01:29;11.30;99.90
563;DHT22;266;49.514;8.294;2023-03-31T05:03:59;11.30;99.90
563;DHT22;266;49.514;8.294;2023-03-31T05:06:27;11.30;99.90
563;DHT22;266;49.514;8.294;2023-03-31T05:08:55;11.30;99.90
563;DHT22;266;49.514;8.294;2023-03-31T05:11:24;11.20;99.90
563;DHT22;266;49.514;8.294;2023-03-31T05:13:53;11.20;99.90
563;DHT22;266;49.514;8.294;2023-03-31T05:16:21;11.20;99.90
563;DHT22;266;49.514;8.294;2023-03-31T05:18:49;11.10;99.90
563;DHT22;266;49.514;8.294;2023-03-31T05:21:18;11.10;99.90
563;DHT22;266;49.514;8.294;2023-03-31T05:23:47;11.10;99.90
563;DHT22;266;49.514;8.294;2023-03-31T05:26:15;11.10;99.90
563;DHT22;266;49.514;8.294;2023-03-31T05:28:45;11.00;99.90
563;DHT22;266;49.514;8.294;2023-03-31T05:31:13;11.00;99.90
563;DHT22;266;49.514;8.294;2023-03-31T05:33:41;11.00;99.90
563;DHT22;266;49.514;8.294;2023-03-31T05:36:11;11.00;99.90
563;DHT22;266;49.514;8.294;2023-03-31T05:38:39;11.00;99.90
563;DHT22;266;49.514;8.294;2023-03-31T05:41:08;10.90;99.90
563;DHT22;266;49.514;8.294;2023-03-31T05:43:37;10.90;99.90
563;DHT22;266;49.514;8.294;2023-03-31T05:46:07;10.90;99.90
563;DHT22;266;49.514;8.294;2023-03-31T05:48:35;10.90;99.90
563;DHT22;266;49.514;8.294;2023-03-31T05:51:04;10.80;99.90
563;DHT22;266;49.514;8.294;2023-03-31T05:53:32;10.80;99.90
563;DHT22;266;49.514;8.294;2023-03-31T05:56:02;10.70;99.90
563;DHT22;266;49.514;8.294;2023-03-31T05:58:33;10.70;99.90
563;DHT22;266;49.514;8.294;2023-03-31T06:01:03;10.60;99.90
563;DHT22;266;49.514;8.294;2023-03-31T06:03:37;10.50;99.90
563;DHT22;266;49.514;8.294;2023-03-31T06:06:07;10.60;99.90
563;DHT22;266;49.514;8.294;2023-03-31T06:08:36;10.50;99.90
563;DHT22;266;49.514;8.294;2023-03-31T06:11:05;10.50;99.90
563;DHT22;266;49.514;8.294;2023-03-31T06:13:34;10.50;99.90
563;DHT22;266;49.514;8.294;2023-03-31T06:16:03;10.50;99.90
563;DHT22;266;49.514;8.294;2023-03-31T06:18:33;10.50;99.90
563;DHT22;266;49.514;8.294;2023-03-31T06:21:03;10.50;99.90
563;DHT22;266;49.514;8.294;2023-03-31T06:23:32;10.50;99.90
563;DHT22;266;49.514;8.294;2023-03-31T06:26:01;10.50;99.90
563;DHT22;266;49.514;8.294;2023-03-31T06:28:29;10.50;99.90
563;DHT22;266;49.514;8.294;2023-03-31T06:31:02;10.60;99.90
563;DHT22;266;49.514;8.294;2023-03-31T06:33:30;10.60;99.90
563;DHT22;266;49.514;8.294;2023-03-31T06:35:58;10.60;99.90
563;DHT22;266;49.514;8.294;2023-03-31T06:38:29;10.70;99.90
563;DHT22;266;49.514;8.294;2023-03-31T06:40:57;10.60;99.90
563;DHT22;266;49.514;8.294;2023-03-31T06:43:25;10.60;99.90
563;DHT22;266;49.514;8.294;2023-03-31T06:45:54;10.70;99.90
563;DHT22;266;49.514;8.294;2023-03-31T06:48:22;10.70;99.90
563;DHT22;266;49.514;8.294;2023-03-31T06:50:52;10.70;99.90
563;DHT22;266;49.514;8.294;2023-03-31T06:53:21;10.70;99.90
563;DHT22;266;49.514;8.294;2023-03-31T06:55:50;10.70;99.90
563;DHT22;266;49.514;8.294;2023-03-31T06:58:18;10.80;99.90
563;DHT22;266;49.514;8.294;2023-03-31T07:00:47;10.80;99.90
563;DHT22;266;49.514;8.294;2023-03-31T07:03:15;10.80;99.90
563;DHT22;266;49.514;8.294;2023-03-31T07:05:47;10.90;99.90
563;DHT22;266;49.514;8.294;2023-03-31T07:08:16;10.90;99.90
563;DHT22;266;49.514;8.294;2023-03-31T07:10:45;10.90;99.90
563;DHT22;266;49.514;8.294;2023-03-31T07:13:16;10.90;99.90
563;DHT22;266;49.514;8.294;2023-03-31T07:15:47;10.90;99.90
563;DHT22;266;49.514;8.294;2023-03-31T07:18:16;10.90;99.90
563;DHT22;266;49.514;8.294;2023-03-31T07:20:47;10.90;99.90
563;DHT22;266;49.514;8.294;2023-03-31T07:23:16;11.00;99.90
563;DHT22;266;49.514;8.294;2023-03-31T07:25:45;11.00;99.90
563;DHT22;266;49.514;8.294;2023-03-31T07:28:14;11.00;99.90
563;DHT22;266;49.514;8.294;2023-03-31T07:30:43;11.00;99.90
563;DHT22;266;49.514;8.294;2023-03-31T07:33:11;11.00;99.90
563;DHT22;266;49.514;8.294;2023-03-31T07:35:39;11.10;99.90
563;DHT22;266;49.514;8.294;2023-03-31T07:38:08;11.30;99.90
563;DHT22;266;49.514;8.294;2023-03-31T07:40:36;11.40;99.90
563;DHT22;266;49.514;8.294;2023-03-31T07:43:05;11.60;99.90
563;DHT22;266;49.514;8.294;2023-03-31T07:45:33;11.80;99.90
563;DHT22;266;49.514;8.294;2023-03-31T07:48:03;12.10;99.90
563;DHT22;266;49.514;8.294;2023-03-31T07:50:31;12.40;99.90
563;DHT22;266;49.514;8.294;2023-03-31T07:52:59;12.40;99.90
563;DHT22;266;49.514;8.294;2023-03-31T07:55:27;12.30;99.90
563;DHT22;266;49.514;8.294;2023-03-31T07:57:55;12.20;99.90
563;DHT22;266;49.514;8.294;2023-03-31T08:00:23;12.10;99.90
563;DHT22;266;49.514;8.294;2023-03-31T08:02:51;12.10;99.90
563;DHT22;266;49.514;8.294;2023-03-31T08:05:21;12.00;99.90
563;DHT22;266;49.514;8.294;2023-03-31T08:07:49;12.00;99.90
563;DHT22;266;49.514;8.294;2023-03-31T08:10:20;11.90;99.90
563;DHT22;266;49.514;8.294;2023-03-31T08:12:48;11.80;99.90
563;DHT22;266;49.514;8.294;2023-03-31T08:15:17;11.70;99.90
563;DHT22;266;49.514;8.294;2023-03-31T08:17:45;11.70;99.90
563;DHT22;266;49.514;8.294;2023-03-31T08:20:13;11.60;99.90
563;DHT22;266;49.514;8.294;2023-03-31T08:22:42;11.60;99.90
563;DHT22;266;49.514;8.294;2023-03-31T08:25:10;11.60;99.90
563;DHT22;266;49.514;8.294;2023-03-31T08:27:39;11.70;99.90
563;DHT22;266;49.514;8.294;2023-03-31T08:30:09;11.70;99.90
563;DHT22;266;49.514;8.294;2023-03-31T08:32:37;11.70;99.90
563;DHT22;266;49.514;8.294;2023-03-31T08:35:06;11.80;99.90
563;DHT22;266;49.514;8.294;2023-03-31T08:37:35;11.90;99.90
563;DHT22;266;49.514;8.294;2023-03-31T08:40:06;12.10;99.90
563;DHT22;266;49.514;8.294;2023-03-31T08:42:37;12.20;99.90
563;DHT22;266;49.514;8.294;2023-03-31T08:45:10;12.20;99.90
563;DHT22;266;49.514;8.294;2023-03-31T08:47:41;12.10;99.90
563;DHT22;266;49.514;8.294;2023-03-31T08:50:13;12.10;99.90
563;DHT22;266;49.514;8.294;2023-03-31T08:52:46;11.90;99.90
563;DHT22;266;49.514;8.294;2023-03-31T08:55:21;11.70;99.90
563;DHT22;266;49.514;8.294;2023-03-31T08:57:55;11.60;99.90
563;DHT22;266;49.514;8.294;2023-03-31T09:00:24;11.40;99.90
563;DHT22;266;49.514;8.294;2023-03-31T09:02:58;11.40;99.90
563;DHT22;266;49.514;8.294;2023-03-31T09:05:45;11.50;99.90
563;DHT22;266;49.514;8.294;2023-03-31T09:08:35;11.50;99.90
563;DHT22;266;49.514;8.294;2023-03-31T09:11:24;11.60;99.90
563;DHT22;266;49.514;8.294;2023-03-31T09:14:17;11.20;99.90
563;DHT22;266;49.514;8.294;2023-03-31T09:16:53;10.50;99.90
563;DHT22;266;49.514;8.294;2023-03-31T09:19:37;10.00;99.90
563;DHT22;266;49.514;8.294;2023-03-31T09:22:11;9.60;99.90
563;DHT22;266;49.514;8.294;2023-03-31T09:24:50;9.50;99.90
563;DHT22;266;49.514;8.294;2023-03-31T09:27:22;9.50;99.90
563;DHT22;266;49.514;8.294;2023-03-31T09:29:53;9.50;99.90
563;DHT22;266;49.514;8.294;2023-03-31T09:32:25;9.40;99.90
563;DHT22;266;49.514;8.294;2023-03-31T09:34:57;9.50;99.90
563;DHT22;266;49.514;8.294;2023-03-31T09:37:29;9.50;99.90
563;DHT22;266;49.514;8.294;2023-03-31T09:39:59;9.50;99.90
563;DHT22;266;49.514;8.294;2023-03-31T09:42:29;9.60;99.90
563;DHT22;266;49.514;8.294;2023-03-31T09:44:57;9.60;99.90
563;DHT22;266;49.514;8.294;2023-03-31T09:47:31;9.70;99.90
563;DHT22;266;49.514;8.294;2023-03-31T09:50:00;9.70;99.90
563;DHT22;266;49.514;8.294;2023-03-31T09:52:30;9.70;99.90
563;DHT22;266;49.514;8.294;2023-03-31T09:54:59;9.80;99.90
563;DHT22;266;49.514;8.294;2023-03-31T09:57:32;9.80;99.90
563;DHT22;266;49.514;8.294;2023-03-31T10:00:12;9.90;99.90
563;DHT22;266;49.514;8.294;2023-03-31T10:02:43;9.90;99.90
563;DHT22;266;49.514;8.294;2023-03-31T10:05:25;9.90;99.90
563;DHT22;266;49.514;8.294;2023-03-31T10:08:13;9.90;99.90
563;DHT22;266;49.514;8.294;2023-03-31T10:10:48;10.00;99.90
563;DHT22;266;49.514;8.294;2023-03-31T10:13:19;10.20;99.90
563;DHT22;266;49.514;8.294;2023-03-31T10:15:51;10.50;99.90
563;DHT22;266;49.514;8.294;2023-03-31T10:18:20;10.80;99.90
563;DHT22;266;49.514;8.294;2023-03-31T10:20:51;11.00;99.90
563;DHT22;266;49.514;8.294;2023-03-31T10:23:25;11.10;99.90
563;DHT22;266;49.514;8.294;2023-03-31T10:25:53;11.30;99.90
563;DHT22;266;49.514;8.294;2023-03-31T10:28:23;11.50;99.90
563;DHT22;266;49.514;8.294;2023-03-31T10:30:53;11.80;99.90
563;DHT22;266;49.514;8.294;2023-03-31T10:33:25;11.90;99.90
563;DHT22;266;49.514;8.294;2023-03-31T10:35:55;12.10;99.90
563;DHT22;266;49.514;8.294;2023-03-31T10:38:26;12.40;99.90
563;DHT22;266;49.514;8.294;2023-03-31T10:40:56;12.50;99.90
563;DHT22;266;49.514;8.294;2023-03-31T10:43:28;12.70;99.90
563;DHT22;266;49.514;8.294;2023-03-31T10:45:58;12.80;99.90
563;DHT22;266;49.514;8.294;2023-03-31T10:48:28;13.00;99.90
563;DHT22;266;49.514;8.294;2023-03-31T10:50:59;13.20;99.90
563;DHT22;266;49.514;8.294;2023-03-31T10:53:28;13.30;99.90
563;DHT22;266;49.514;8.294;2023-03-31T10:56:03;13.30;99.90
563;DHT22;266;49.514;8.294;2023-03-31T10:58:45;13.20;99.90
563;DHT22;266;49.514;8.294;2023-03-31T11:01:39;13.10;99.90
563;DHT22;266;49.514;8.294;2023-03-31T11:04:30;12.70;99.90
563;DHT22;266;49.514;8.294;2023-03-31T11:07:07;12.10;99.90
563;DHT22;266;49.514;8.294;2023-03-31T11:09:47;11.70;99.90
563;DHT22;266;49.514;8.294;2023-03-31T11:12:23;11.50;99.90
563;DHT22;266;49.514;8.294;2023-03-31T11:15:02;11.30;99.90
563;DHT22;266;49.514;8.294;2023-03-31T11:17:48;11.30;99.90
563;DHT22;266;49.514;8.294;2023-03-31T11:20:25;11.40;99.90
563;DHT22;266;49.514;8.294;2023-03-31T11:23:00;11.60;99.90
563;DHT22;266;49.514;8.294;2023-03-31T11:25:36;11.80;99.90
563;DHT22;266;49.514;8.294;2023-03-31T11:28:23;12.10;99.90
563;DHT22;266;49.514;8.294;2023-03-31T11:31:00;12.30;99.90
563;DHT22;266;49.514;8.294;2023-03-31T11:33:51;12.60;99.90
563;DHT22;266;49.514;8.294;2023-03-31T11:36:40;13.00;99.90
563;DHT22;266;49.514;8.294;2023-03-31T11:39:23;13.20;99.90
563;DHT22;266;49.514;8.294;2023-03-31T11:41:56;13.50;99.90
563;DHT22;266;49.514;8.294;2023-03-31T11:44:27;13.70;99.90
563;DHT22;266;49.514;8.294;2023-03-31T11:47:00;13.80;99.90
563;DHT22;266;49.514;8.294;2023-03-31T11:49:31;13.80;99.90
563;DHT22;266;49.514;8.294;2023-03-31T11:52:11;13.60;99.90
563;DHT22;266;49.514;8.294;2023-03-31T11:54:51;13.50;99.90
563;DHT22;266;49.514;8.294;2023-03-31T11:57:24;13.40;99.90
563;DHT22;266;49.514;8.294;2023-03-31T11:59:57;13.20;99.90
563;DHT22;266;49.514;8.294;2023-03-31T12:02:35;13.10;99.90
563;DHT22;266;49.514;8.294;2023-03-31T12:05:06;13.00;99.90
563;DHT22;266;49.514;8.294;2023-03-31T12:07:40;13.00;99.90
563;DHT22;266;49.514;8.294;2023-03-31T12:10:17;13.00;99.90
563;DHT22;266;49.514;8.294;2023-03-31T12:12:50;13.10;99.90
563;DHT22;266;49.514;8.294;2023-03-31T12:15:22;13.30;99.90
563;DHT22;266;49.514;8.294;2023-03-31T12:17:56;13.40;99.90
563;DHT22;266;49.514;8.294;2023-03-31T12:20:30;13.70;99.90
563;DHT22;266;49.514;8.294;2023-03-31T12:23:00;13.70;99.90
563;DHT22;266;49.514;8.294;2023-03-31T12:25:40;13.70;99.90
563;DHT22;266;49.514;8.294;2023-03-31T12:28:10;13.70;99.90
563;DHT22;266;49.514;8.294;2023-03-31T12:30:40;13.80;99.90
563;DHT22;266;49.514;8.294;2023-03-31T12:33:15;13.90;99.90
563;DHT22;266;49.514;8.294;2023-03-31T12:35:55;13.90;99.90
563;DHT22;266;49.514;8.294;2023-03-31T12:38:36;13.90;99.90
563;DHT22;266;49.514;8.294;2023-03-31T12:41:13;14.00;99.90
563;DHT22;266;49.514;8.294;2023-03-31T12:44:00;14.10;99.90
563;DHT22;266;49.514;8.294;2023-03-31T12:46:57;14.10;99.90
563;DHT22;266;49.514;8.294;2023-03-31T12:49:38;14.10;99.90
563;DHT22;266;49.514;8.294;2023-03-31T12:52:14;14.10;99.90
563;DHT22;266;49.514;8.294;2023-03-31T12:55:00;14.10;99.90
563;DHT22;266;49.514;8.294;2023-03-31T12:57:31;14.00;99.90
563;DHT22;266;49.514;8.294;2023-03-31T13:00:23;14.10;99.90
563;DHT22;266;49.514;8.294;2023-03-31T13:06:02;14.00;99.90
563;DHT22;266;49.514;8.294;2023-03-31T13:08:51;14.10;99.90
563;DHT22;266;49.514;8.294;2023-03-31T13:11:21;14.00;99.90
563;DHT22;266;49.514;8.294;2023-03-31T13:13:58;13.90;99.90
563;DHT22;266;49.514;8.294;2023-03-31T13:16:27;14.00;99.90
563;DHT22;266;49.514;8.294;2023-03-31T13:18:56;14.20;99.90
563;DHT22;266;49.514;8.294;2023-03-31T13:21:26;14.20;99.90
563;DHT22;266;49.514;8.294;2023-03-31T13:23:58;14.30;99.90
563;DHT22;266;49.514;8.294;2023-03-31T13:26:35;14.40;99.90
563;DHT22;266;49.514;8.294;2023-03-31T13:29:20;14.40;99.90
563;DHT22;266;49.514;8.294;2023-03-31T13:32:17;14.30;99.90
563;DHT22;266;49.514;8.294;2023-03-31T13:34:56;14.20;99.90
563;DHT22;266;49.514;8.294;2023-03-31T13:37:56;14.20;99.90
563;DHT22;266;49.514;8.294;2023-03-31T13:40:54;14.20;99.90
563;DHT22;266;49.514;8.294;2023-03-31T13:46:49;14.20;99.90
563;DHT22;266;49.514;8.294;2023-03-31T13:49:38;14.20;99.90
563;DHT22;266;49.514;8.294;2023-03-31T13:52:11;14.20;99.90
563;DHT22;266;49.514;8.294;2023-03-31T13:55:10;14.20;99.90
563;DHT22;266;49.514;8.294;2023-03-31T13:58:13;14.00;99.90
563;DHT22;266;49.514;8.294;2023-03-31T14:01:15;13.80;99.90
563;DHT22;266;49.514;8.294;2023-03-31T14:03:57;13.60;99.90
563;DHT22;266;49.514;8.294;2023-03-31T14:06:32;13.40;99.90
563;DHT22;266;49.514;8.294;2023-03-31T14:09:05;13.30;99.90
563;DHT22;266;49.514;8.294;2023-03-31T14:11:35;13.20;99.90
563;DHT22;266;49.514;8.294;2023-03-31T14:14:05;13.20;99.90
563;DHT22;266;49.514;8.294;2023-03-31T14:16:37;13.30;99.90
563;DHT22;266;49.514;8.294;2023-03-31T14:22:21;13.50;99.90
563;DHT22;266;49.514;8.294;2023-03-31T14:24:57;13.50;99.90
563;DHT22;266;49.514;8.294;2023-03-31T14:27:41;13.60;99.90
563;DHT22;266;49.514;8.294;2023-03-31T14:30:17;13.60;99.90
563;DHT22;266;49.514;8.294;2023-03-31T14:33:00;13.50;99.90
563;DHT22;266;49.514;8.294;2023-03-31T14:35:33;13.50;99.90
563;DHT22;266;49.514;8.294;2023-03-31T14:38:09;13.50;99.90
563;DHT22;266;49.514;8.294;2023-03-31T14:40:44;13.50;99.90
563;DHT22;266;49.514;8.294;2023-03-31T14:43:19;13.40;99.90
563;DHT22;266;49.514;8.294;2023-03-31T14:45:56;13.30;99.90
563;DHT22;266;49.514;8.294;2023-03-31T14:48:26;13.30;99.90
563;DHT22;266;49.514;8.294;2023-03-31T14:50:57;13.30;99.90
563;DHT22;266;49.514;8.294;2023-03-31T14:53:25;13.30;99.90
563;DHT22;266;49.514;8.294;2023-03-31T14:55:58;13.30;99.90
563;DHT22;266;49.514;8.294;2023-03-31T14:58:30;13.30;99.90
563;DHT22;266;49.514;8.294;2023-03-31T15:01:02;13.20;99.90
563;DHT22;266;49.514;8.294;2023-03-31T15:03:33;13.00;99.90
563;DHT22;266;49.514;8.294;2023-03-31T15:06:02;12.90;99.90
563;DHT22;266;49.514;8.294;2023-03-31T15:08:32;12.80;99.90
563;DHT22;266;49.514;8.294;2023-03-31T15:11:04;12.60;99.90
563;DHT22;266;49.514;8.294;2023-03-31T15:13:40;12.60;99.90
563;DHT22;266;49.514;8.294;2023-03-31T15:16:20;12.70;99.90
563;DHT22;266;49.514;8.294;2023-03-31T15:18:56;12.80;99.90
563;DHT22;266;49.514;8.294;2023-03-31T15:21:26;12.90;99.90
563;DHT22;266;49.514;8.294;2023-03-31T15:23:55;13.00;99.90
563;DHT22;266;49.514;8.294;2023-03-31T15:26:26;13.10;99.90
563;DHT22;266;49.514;8.294;2023-03-31T15:29:19;13.20;99.90
563;DHT22;266;49.514;8.294;2023-03-31T15:31:49;13.30;99.90
563;DHT22;266;49.514;8.294;2023-03-31T15:34:20;13.40;99.90
563;DHT22;266;49.514;8.294;2023-03-31T15:36:53;13.50;99.90
563;DHT22;266;49.514;8.294;2023-03-31T15:39:22;13.60;99.90
563;DHT22;266;49.514;8.294;2023-03-31T15:41:50;13.50;99.90
563;DHT22;266;49.514;8.294;2023-03-31T15:44:35;13.50;99.90
563;DHT22;266;49.514;8.294;2023-03-31T15:47:16;13.40;99.90
563;DHT22;266;49.514;8.294;2023-03-31T15:49:50;13.40;99.90
563;DHT22;266;49.514;8.294;2023-03-31T15:52:20;13.40;99.90
563;DHT22;266;49.514;8.294;2023-03-31T15:54:48;13.40;99.90
563;DHT22;266;49.514;8.294;2023-03-31T15:57:16;13.30;99.90
563;DHT22;266;49.514;8.294;2023-03-31T15:59:47;13.30;99.90
563;DHT22;266;49.514;8.294;2023-03-31T16:02:24;13.20;99.90
563;DHT22;266;49.514;8.294;2023-03-31T16:04:55;13.10;99.90
563;DHT22;266;49.514;8.294;2023-03-31T16:07:25;13.00;99.90
563;DHT22;266;49.514;8.294;2023-03-31T16:09:58;12.90;99.90
563;DHT22;266;49.514;8.294;2023-03-31T16:12:29;12.80;99.90
563;DHT22;266;49.514;8.294;2023-03-31T16:15:03;12.80;99.90
563;DHT22;266;49.514;8.294;2023-03-31T16:17:36;12.70;99.90
563;DHT22;266;49.514;8.294;2023-03-31T16:20:07;12.70;99.90
563;DHT22;266;49.514;8.294;2023-03-31T16:22:43;12.70;99.90
563;DHT22;266;49.514;8.294;2023-03-31T16:25:15;12.70;99.90
563;DHT22;266;49.514;8.294;2023-03-31T16:27:45;12.70;99.90
563;DHT22;266;49.514;8.294;2023-03-31T16:30:17;12.80;99.90
563;DHT22;266;49.514;8.294;2023-03-31T16:33:05;12.80;99.90
563;DHT22;266;49.514;8.294;2023-03-31T16:35:34;12.80;99.90
563;DHT22;266;49.514;8.294;2023-03-31T16:38:03;12.80;99.90
563;DHT22;266;49.514;8.294;2023-03-31T16:40:36;12.80;99.90
563;DHT22;266;49.514;8.294;2023-03-31T16:43:10;12.80;99.90
563;DHT22;266;49.514;8.294;2023-03-31T16:45:42;12.90;99.90
563;DHT22;266;49.514;8.294;2023-03-31T16:48:11;12.90;99.90
563;DHT22;266;49.514;8.294;2023-03-31T16:50:43;12.90;99.90
563;DHT22;266;49.514;8.294;2023-03-31T16:53:11;12.90;99.90
563;DHT22;266;49.514;8.294;2023-03-31T16:55:39;12.90;99.90
563;DHT22;266;49.514;8.294;2023-03-31T16:58:07;12.90;99.90
563;DHT22;266;49.514;8.294;2023-03-31T17:00:36;12.90;99.90
563;DHT22;266;49.514;8.294;2023-03-31T17:03:08;12.90;99.90
563;DHT22;266;49.514;8.294;2023-03-31T17:05:37;12.90;99.90
563;DHT22;266;49.514;8.294;2023-03-31T17:08:05;12.90;99.90
563;DHT22;266;49.514;8.294;2023-03-31T17:10:34;12.90;99.90
563;DHT22;266;49.514;8.294;2023-03-31T17:13:02;12.90;99.90
563;DHT22;266;49.514;8.294;2023-03-31T17:15:30;12.90;99.90
563;DHT22;266;49.514;8.294;2023-03-31T17:17:58;12.90;99.90
563;DHT22;266;49.514;8.294;2023-03-31T17:20:29;12.80;99.90
563;DHT22;266;49.514;8.294;2023-03-31T17:22:58;12.80;99.90